sensor_id;sensor_type;location;lat;lon;timestamp;P1;durP1;ratioP1;P2;durP2;ratioP2
7195;SDS011;3639;51.308;5.624;2023-04-06T00:00:52;11.33;;;6.93;;
7195;SDS011;3639;51.308;5.624;2023-04-06T00:03:18;12.07;;;8.10;;
7195;SDS011;3639;51.308;5.624;2023-04-06T00:05:44;14.87;;;8.43;;
7195;SDS011;3639;51.308;5.624;2023-04-06T00:08:10;14.73;;;7.90;;
7195;SDS011;3639;51.308;5.624;2023-04-06T00:10:36;16.57;;;8.67;;
7195;SDS011;3639;51.308;5.624;2023-04-06T00:13:02;13.03;;;7.93;;
7195;SDS011;3639;51.308;5.624;2023-04-06T00:15:27;11.47;;;7.57;;
7195;SDS011;3639;51.308;5.624;2023-04-06T00:17:53;13.47;;;8.10;;
7195;SDS011;3639;51.308;5.624;2023-04-06T00:20:19;17.83;;;8.27;;
7195;SDS011;3639;51.308;5.624;2023-04-06T00:22:45;13.60;;;8.03;;
7195;SDS011;3639;51.308;5.624;2023-04-06T00:25:10;12.03;;;7.80;;
7195;SDS011;3639;51.308;5.624;2023-04-06T00:27:36;13.03;;;8.50;;
7195;SDS011;3639;51.308;5.624;2023-04-06T00:30:03;15.93;;;8.63;;
7195;SDS011;3639;51.308;5.624;2023-04-06T00:32:30;13.13;;;7.67;;
7195;SDS011;3639;51.308;5.624;2023-04-06T00:34:56;12.57;;;7.70;;
7195;SDS011;3639;51.308;5.624;2023-04-06T00:37:23;10.33;;;7.17;;
7195;SDS011;3639;51.308;5.624;2023-04-06T00:39:49;13.97;;;7.87;;
7195;SDS011;3639;51.308;5.624;2023-04-06T00:42:16;17.47;;;8.80;;
7195;SDS011;3639;51.308;5.624;2023-04-06T00:44:50;15.60;;;8.63;;
7195;SDS011;3639;51.308;5.624;2023-04-06T00:47:23;17.53;;;8.80;;
7195;SDS011;3639;51.308;5.624;2023-04-06T00:49:52;12.13;;;8.03;;
7195;SDS011;3639;51.308;5.624;2023-04-06T00:52:19;13.20;;;7.90;;
7195;SDS011;3639;51.308;5.624;2023-04-06T00:54:44;13.87;;;8.73;;
7195;SDS011;3639;51.308;5.624;2023-04-06T00:57:13;14.03;;;8.83;;
7195;SDS011;3639;51.308;5.624;2023-04-06T00:59:39;16.77;;;9.47;;
7195;SDS011;3639;51.308;5.624;2023-04-06T01:02:05;16.37;;;9.00;;
7195;SDS011;3639;51.308;5.624;2023-04-06T01:04:32;11.90;;;8.63;;
7195;SDS011;3639;51.308;5.624;2023-04-06T01:06:58;14.17;;;9.17;;
7195;SDS011;3639;51.308;5.624;2023-04-06T01:09:23;14.53;;;9.10;;
7195;SDS011;3639;51.308;5.624;2023-04-06T01:11:49;12.83;;;8.63;;
7195;SDS011;3639;51.308;5.624;2023-04-06T01:14:15;14.10;;;8.37;;
7195;SDS011;3639;51.308;5.624;2023-04-06T01:16:41;17.50;;;9.23;;
7195;SDS011;3639;51.308;5.624;2023-04-06T01:19:10;18.83;;;8.63;;
7195;SDS011;3639;51.308;5.624;2023-04-06T01:21:38;13.70;;;9.00;;
7195;SDS011;3639;51.308;5.624;2023-04-06T01:24:05;18.03;;;9.43;;
7195;SDS011;3639;51.308;5.624;2023-04-06T01:26:32;13.47;;;9.27;;
7195;SDS011;3639;51.308;5.624;2023-04-06T01:28:58;17.30;;;10.67;;
7195;SDS011;3639;51.308;5.624;2023-04-06T01:31:24;15.83;;;10.27;;
7195;SDS011;3639;51.308;5.624;2023-04-06T01:33:50;16.17;;;10.87;;
7195;SDS011;3639;51.308;5.624;2023-04-06T01:36:15;19.47;;;10.87;;
7195;SDS011;3639;51.308;5.624;2023-04-06T01:38:41;15.70;;;9.53;;
7195;SDS011;3639;51.308;5.624;2023-04-06T01:41:07;19.57;;;11.60;;
7195;SDS011;3639;51.308;5.624;2023-04-06T01:43:33;18.07;;;11.23;;
7195;SDS011;3639;51.308;5.624;2023-04-06T01:45:59;21.50;;;12.33;;
7195;SDS011;3639;51.308;5.624;2023-04-06T01:48:26;16.23;;;11.10;;
7195;SDS011;3639;51.308;5.624;2023-04-06T01:50:52;16.53;;;11.53;;
7195;SDS011;3639;51.308;5.624;2023-04-06T01:53:18;20.50;;;11.47;;
7195;SDS011;3639;51.308;5.624;2023-04-06T01:55:44;20.67;;;11.80;;
7195;SDS011;3639;51.308;5.624;2023-04-06T01:58:10;18.97;;;12.73;;
7195;SDS011;3639;51.308;5.624;2023-04-06T02:00:36;20.77;;;11.73;;
7195;SDS011;3639;51.308;5.624;2023-04-06T02:03:01;17.57;;;10.50;;
7195;SDS011;3639;51.308;5.624;2023-04-06T02:05:28;23.70;;;11.80;;
7195;SDS011;3639;51.308;5.624;2023-04-06T02:07:55;21.47;;;12.50;;
7195;SDS011;3639;51.308;5.624;2023-04-06T02:10:22;26.43;;;13.47;;
7195;SDS011;3639;51.308;5.624;2023-04-06T02:12:48;23.43;;;13.10;;
7195;SDS011;3639;51.308;5.624;2023-04-06T02:15:14;20.90;;;12.10;;
7195;SDS011;3639;51.308;5.624;2023-04-06T02:17:40;22.17;;;12.53;;
7195;SDS011;3639;51.308;5.624;2023-04-06T02:20:07;22.17;;;12.07;;
7195;SDS011;3639;51.308;5.624;2023-04-06T02:22:33;20.77;;;12.23;;
7195;SDS011;3639;51.308;5.624;2023-04-06T02:25:00;21.27;;;12.27;;
7195;SDS011;3639;51.308;5.624;2023-04-06T02:27:26;20.87;;;12.70;;
7195;SDS011;3639;51.308;5.624;2023-04-06T02:29:51;22.30;;;12.63;;
7195;SDS011;3639;51.308;5.624;2023-04-06T02:32:17;23.20;;;12.17;;
7195;SDS011;3639;51.308;5.624;2023-04-06T02:34:43;22.63;;;12.67;;
7195;SDS011;3639;51.308;5.624;2023-04-06T02:37:10;22.03;;;12.33;;
7195;SDS011;3639;51.308;5.624;2023-04-06T02:39:35;28.10;;;12.63;;
7195;SDS011;3639;51.308;5.624;2023-04-06T02:42:01;19.47;;;11.63;;
7195;SDS011;3639;51.308;5.624;2023-04-06T02:44:27;21.27;;;12.23;;
7195;SDS011;3639;51.308;5.624;2023-04-06T02:46:52;21.90;;;13.13;;
7195;SDS011;3639;51.308;5.624;2023-04-06T02:49:18;22.13;;;12.80;;
7195;SDS011;3639;51.308;5.624;2023-04-06T02:51:44;21.17;;;12.93;;
7195;SDS011;3639;51.308;5.624;2023-04-06T02:54:09;18.73;;;11.43;;
7195;SDS011;3639;51.308;5.624;2023-04-06T02:56:35;18.73;;;11.50;;
7195;SDS011;3639;51.308;5.624;2023-04-06T02:59:01;23.47;;;11.73;;
7195;SDS011;3639;51.308;5.624;2023-04-06T03:01:26;22.53;;;11.50;;
7195;SDS011;3639;51.308;5.624;2023-04-06T03:03:52;20.10;;;12.07;;
7195;SDS011;3639;51.308;5.624;2023-04-06T03:06:18;21.83;;;12.83;;
7195;SDS011;3639;51.308;5.624;2023-04-06T03:08:43;22.17;;;11.47;;
7195;SDS011;3639;51.308;5.624;2023-04-06T03:11:09;24.20;;;12.77;;
7195;SDS011;3639;51.308;5.624;2023-04-06T03:13:35;23.77;;;11.97;;
7195;SDS011;3639;51.308;5.624;2023-04-06T03:16:03;22.40;;;12.13;;
7195;SDS011;3639;51.308;5.624;2023-04-06T03:18:30;22.00;;;12.00;;
7195;SDS011;3639;51.308;5.624;2023-04-06T03:20:57;24.93;;;12.50;;
7195;SDS011;3639;51.308;5.624;2023-04-06T03:23:23;21.63;;;11.90;;
7195;SDS011;3639;51.308;5.624;2023-04-06T03:25:48;23.07;;;11.77;;
7195;SDS011;3639;51.308;5.624;2023-04-06T03:28:14;21.87;;;12.80;;
7195;SDS011;3639;51.308;5.624;2023-04-06T03:30:41;19.00;;;11.80;;
7195;SDS011;3639;51.308;5.624;2023-04-06T03:33:07;24.27;;;11.57;;
7195;SDS011;3639;51.308;5.624;2023-04-06T03:35:32;25.43;;;12.40;;
7195;SDS011;3639;51.308;5.624;2023-04-06T03:37:58;18.57;;;11.27;;
7195;SDS011;3639;51.308;5.624;2023-04-06T03:40:24;22.40;;;12.93;;
7195;SDS011;3639;51.308;5.624;2023-04-06T03:42:49;19.73;;;10.93;;
7195;SDS011;3639;51.308;5.624;2023-04-06T03:45:15;21.70;;;12.63;;
7195;SDS011;3639;51.308;5.624;2023-04-06T03:47:41;20.30;;;12.13;;
7195;SDS011;3639;51.308;5.624;2023-04-06T03:50:07;20.07;;;11.83;;
7195;SDS011;3639;51.308;5.624;2023-04-06T03:52:34;24.93;;;13.00;;
7195;SDS011;3639;51.308;5.624;2023-04-06T03:55:00;24.83;;;12.63;;
7195;SDS011;3639;51.308;5.624;2023-04-06T03:57:26;25.90;;;12.33;;
7195;SDS011;3639;51.308;5.624;2023-04-06T03:59:51;22.57;;;11.63;;
7195;SDS011;3639;51.308;5.624;2023-04-06T04:02:17;21.33;;;12.27;;
7195;SDS011;3639;51.308;5.624;2023-04-06T04:04:43;18.90;;;10.87;;
7195;SDS011;3639;51.308;5.624;2023-04-06T04:07:08;26.90;;;12.60;;
7195;SDS011;3639;51.308;5.624;2023-04-06T04:09:34;19.80;;;10.90;;
7195;SDS011;3639;51.308;5.624;2023-04-06T04:12:00;22.23;;;10.97;;
7195;SDS011;3639;51.308;5.624;2023-04-06T04:14:26;21.13;;;11.80;;
7195;SDS011;3639;51.308;5.624;2023-04-06T04:16:51;23.00;;;11.73;;
7195;SDS011;3639;51.308;5.624;2023-04-06T04:19:17;24.47;;;11.20;;
7195;SDS011;3639;51.308;5.624;2023-04-06T04:21:43;20.40;;;12.30;;
7195;SDS011;3639;51.308;5.624;2023-04-06T04:24:10;17.83;;;11.40;;
7195;SDS011;3639;51.308;5.624;2023-04-06T04:26:36;16.60;;;11.13;;
7195;SDS011;3639;51.308;5.624;2023-04-06T04:29:03;22.33;;;12.50;;
7195;SDS011;3639;51.308;5.624;2023-04-06T04:31:28;24.33;;;12.80;;
7195;SDS011;3639;51.308;5.624;2023-04-06T04:33:54;17.57;;;11.03;;
7195;SDS011;3639;51.308;5.624;2023-04-06T04:36:20;20.77;;;12.27;;
7195;SDS011;3639;51.308;5.624;2023-04-06T04:38:46;23.93;;;10.87;;
7195;SDS011;3639;51.308;5.624;2023-04-06T04:41:11;20.43;;;11.13;;
7195;SDS011;3639;51.308;5.624;2023-04-06T04:43:37;19.33;;;10.83;;
7195;SDS011;3639;51.308;5.624;2023-04-06T04:46:03;22.30;;;12.83;;
7195;SDS011;3639;51.308;5.624;2023-04-06T04:48:29;21.27;;;12.27;;
7195;SDS011;3639;51.308;5.624;2023-04-06T04:50:55;21.30;;;12.93;;
7195;SDS011;3639;51.308;5.624;2023-04-06T04:53:21;20.57;;;12.60;;
7195;SDS011;3639;51.308;5.624;2023-04-06T04:55:47;18.13;;;11.40;;
7195;SDS011;3639;51.308;5.624;2023-04-06T04:58:12;21.13;;;11.27;;
7195;SDS011;3639;51.308;5.624;2023-04-06T05:00:41;19.43;;;11.67;;
7195;SDS011;3639;51.308;5.624;2023-04-06T05:03:08;26.00;;;12.33;;
7195;SDS011;3639;51.308;5.624;2023-04-06T05:05:35;19.03;;;11.77;;
7195;SDS011;3639;51.308;5.624;2023-04-06T05:08:01;26.80;;;12.77;;
7195;SDS011;3639;51.308;5.624;2023-04-06T05:10:26;20.50;;;12.30;;
7195;SDS011;3639;51.308;5.624;2023-04-06T05:12:52;24.33;;;12.30;;
7195;SDS011;3639;51.308;5.624;2023-04-06T05:15:18;20.90;;;12.87;;
7195;SDS011;3639;51.308;5.624;2023-04-06T05:17:44;25.40;;;12.93;;
7195;SDS011;3639;51.308;5.624;2023-04-06T05:20:10;24.77;;;12.17;;
7195;SDS011;3639;51.308;5.624;2023-04-06T05:22:36;24.07;;;12.50;;
7195;SDS011;3639;51.308;5.624;2023-04-06T05:25:02;19.93;;;11.30;;
7195;SDS011;3639;51.308;5.624;2023-04-06T05:27:28;23.33;;;12.53;;
7195;SDS011;3639;51.308;5.624;2023-04-06T05:29:54;22.93;;;11.63;;
7195;SDS011;3639;51.308;5.624;2023-04-06T05:32:19;18.70;;;11.70;;
7195;SDS011;3639;51.308;5.624;2023-04-06T05:34:47;19.93;;;11.07;;
7195;SDS011;3639;51.308;5.624;2023-04-06T05:37:14;22.70;;;12.13;;
7195;SDS011;3639;51.308;5.624;2023-04-06T05:39:40;23.77;;;11.87;;
7195;SDS011;3639;51.308;5.624;2023-04-06T05:42:06;19.53;;;11.97;;
7195;SDS011;3639;51.308;5.624;2023-04-06T05:44:32;19.80;;;11.90;;
7195;SDS011;3639;51.308;5.624;2023-04-06T05:46:58;21.73;;;12.03;;
7195;SDS011;3639;51.308;5.624;2023-04-06T05:49:23;22.27;;;11.67;;
7195;SDS011;3639;51.308;5.624;2023-04-06T05:51:49;23.27;;;11.07;;
7195;SDS011;3639;51.308;5.624;2023-04-06T05:54:15;21.37;;;11.00;;
7195;SDS011;3639;51.308;5.624;2023-04-06T05:56:40;21.67;;;11.33;;
7195;SDS011;3639;51.308;5.624;2023-04-06T05:59:06;20.27;;;11.40;;
7195;SDS011;3639;51.308;5.624;2023-04-06T06:01:32;22.40;;;11.67;;
7195;SDS011;3639;51.308;5.624;2023-04-06T06:03:59;20.43;;;11.33;;
7195;SDS011;3639;51.308;5.624;2023-04-06T06:06:28;18.63;;;10.77;;
7195;SDS011;3639;51.308;5.624;2023-04-06T06:08:57;24.67;;;11.83;;
7195;SDS011;3639;51.308;5.624;2023-04-06T06:11:26;23.20;;;11.50;;
7195;SDS011;3639;51.308;5.624;2023-04-06T06:13:52;17.07;;;10.33;;
7195;SDS011;3639;51.308;5.624;2023-04-06T06:16:18;17.77;;;11.57;;
7195;SDS011;3639;51.308;5.624;2023-04-06T06:18:44;19.40;;;10.67;;
7195;SDS011;3639;51.308;5.624;2023-04-06T06:21:10;21.90;;;11.13;;
7195;SDS011;3639;51.308;5.624;2023-04-06T06:23:37;16.93;;;10.03;;
7195;SDS011;3639;51.308;5.624;2023-04-06T06:26:03;17.33;;;10.67;;
7195;SDS011;3639;51.308;5.624;2023-04-06T06:28:29;16.43;;;10.03;;
7195;SDS011;3639;51.308;5.624;2023-04-06T06:30:55;16.47;;;10.37;;
7195;SDS011;3639;51.308;5.624;2023-04-06T06:33:21;18.97;;;9.90;;
7195;SDS011;3639;51.308;5.624;2023-04-06T06:35:47;19.43;;;9.63;;
7195;SDS011;3639;51.308;5.624;2023-04-06T06:38:12;15.40;;;10.27;;
7195;SDS011;3639;51.308;5.624;2023-04-06T06:40:39;18.30;;;10.00;;
7195;SDS011;3639;51.308;5.624;2023-04-06T06:43:05;21.20;;;9.83;;
7195;SDS011;3639;51.308;5.624;2023-04-06T06:45:31;20.23;;;10.97;;
7195;SDS011;3639;51.308;5.624;2023-04-06T06:47:56;18.07;;;10.23;;
7195;SDS011;3639;51.308;5.624;2023-04-06T06:50:22;15.03;;;9.67;;
7195;SDS011;3639;51.308;5.624;2023-04-06T06:52:48;17.50;;;10.40;;
7195;SDS011;3639;51.308;5.624;2023-04-06T06:55:13;19.53;;;10.93;;
7195;SDS011;3639;51.308;5.624;2023-04-06T06:57:40;16.40;;;9.70;;
7195;SDS011;3639;51.308;5.624;2023-04-06T07:00:07;15.77;;;9.43;;
7195;SDS011;3639;51.308;5.624;2023-04-06T07:02:34;16.90;;;9.77;;
7195;SDS011;3639;51.308;5.624;2023-04-06T07:05:01;14.97;;;9.37;;
7195;SDS011;3639;51.308;5.624;2023-04-06T07:07:27;19.33;;;11.50;;
7195;SDS011;3639;51.308;5.624;2023-04-06T07:09:52;17.50;;;10.20;;
7195;SDS011;3639;51.308;5.624;2023-04-06T07:12:18;16.17;;;10.33;;
7195;SDS011;3639;51.308;5.624;2023-04-06T07:14:43;16.83;;;10.00;;
7195;SDS011;3639;51.308;5.624;2023-04-06T07:17:09;15.43;;;10.30;;
7195;SDS011;3639;51.308;5.624;2023-04-06T07:19:36;16.03;;;9.73;;
7195;SDS011;3639;51.308;5.624;2023-04-06T07:22:01;16.83;;;9.80;;
7195;SDS011;3639;51.308;5.624;2023-04-06T07:24:28;18.20;;;9.83;;
7195;SDS011;3639;51.308;5.624;2023-04-06T07:26:54;17.53;;;9.37;;
7195;SDS011;3639;51.308;5.624;2023-04-06T07:29:21;16.80;;;9.10;;
7195;SDS011;3639;51.308;5.624;2023-04-06T07:31:47;15.43;;;10.17;;
7195;SDS011;3639;51.308;5.624;2023-04-06T07:34:14;16.37;;;8.77;;
7195;SDS011;3639;51.308;5.624;2023-04-06T07:36:40;15.63;;;9.57;;
7195;SDS011;3639;51.308;5.624;2023-04-06T07:39:06;19.00;;;9.83;;
7195;SDS011;3639;51.308;5.624;2023-04-06T07:41:32;17.67;;;9.27;;
7195;SDS011;3639;51.308;5.624;2023-04-06T07:43:57;20.27;;;9.63;;
7195;SDS011;3639;51.308;5.624;2023-04-06T07:46:23;15.57;;;9.10;;
7195;SDS011;3639;51.308;5.624;2023-04-06T07:48:50;22.67;;;9.70;;
7195;SDS011;3639;51.308;5.624;2023-04-06T07:51:16;18.77;;;10.03;;
7195;SDS011;3639;51.308;5.624;2023-04-06T07:53:43;17.60;;;9.53;;
7195;SDS011;3639;51.308;5.624;2023-04-06T07:56:09;13.63;;;9.50;;
7195;SDS011;3639;51.308;5.624;2023-04-06T07:58:35;15.37;;;8.93;;
7195;SDS011;3639;51.308;5.624;2023-04-06T08:01:01;15.93;;;9.60;;
7195;SDS011;3639;51.308;5.624;2023-04-06T08:03:27;15.73;;;9.13;;
7195;SDS011;3639;51.308;5.624;2023-04-06T08:05:53;16.30;;;8.87;;
7195;SDS011;3639;51.308;5.624;2023-04-06T08:08:18;16.67;;;8.83;;
7195;SDS011;3639;51.308;5.624;2023-04-06T08:10:46;18.00;;;9.17;;
7195;SDS011;3639;51.308;5.624;2023-04-06T08:13:15;19.73;;;9.93;;
7195;SDS011;3639;51.308;5.624;2023-04-06T08:15:41;14.77;;;9.43;;
7195;SDS011;3639;51.308;5.624;2023-04-06T08:18:07;18.40;;;10.50;;
7195;SDS011;3639;51.308;5.624;2023-04-06T08:20:34;19.73;;;9.53;;
7195;SDS011;3639;51.308;5.624;2023-04-06T08:22:59;19.93;;;10.20;;
7195;SDS011;3639;51.308;5.624;2023-04-06T08:25:25;15.33;;;9.57;;
7195;SDS011;3639;51.308;5.624;2023-04-06T08:27:51;19.40;;;10.07;;
7195;SDS011;3639;51.308;5.624;2023-04-06T08:30:17;18.87;;;10.47;;
7195;SDS011;3639;51.308;5.624;2023-04-06T08:32:44;22.30;;;11.00;;
7195;SDS011;3639;51.308;5.624;2023-04-06T08:35:10;17.27;;;10.03;;
7195;SDS011;3639;51.308;5.624;2023-04-06T08:37:37;20.33;;;10.27;;
7195;SDS011;3639;51.308;5.624;2023-04-06T08:40:02;17.77;;;10.10;;
7195;SDS011;3639;51.308;5.624;2023-04-06T08:42:31;23.43;;;10.97;;
7195;SDS011;3639;51.308;5.624;2023-04-06T08:44:57;16.43;;;9.73;;
7195;SDS011;3639;51.308;5.624;2023-04-06T08:47:24;18.77;;;10.40;;
7195;SDS011;3639;51.308;5.624;2023-04-06T08:49:50;18.80;;;9.93;;
7195;SDS011;3639;51.308;5.624;2023-04-06T08:52:17;18.63;;;10.43;;
7195;SDS011;3639;51.308;5.624;2023-04-06T08:54:44;18.73;;;9.33;;
7195;SDS011;3639;51.308;5.624;2023-04-06T08:57:09;18.70;;;9.60;;
7195;SDS011;3639;51.308;5.624;2023-04-06T08:59:35;17.87;;;10.07;;
7195;SDS011;3639;51.308;5.624;2023-04-06T09:02:04;17.83;;;9.10;;
7195;SDS011;3639;51.308;5.624;2023-04-06T09:04:32;16.70;;;8.63;;
7195;SDS011;3639;51.308;5.624;2023-04-06T09:07:00;18.07;;;9.70;;
7195;SDS011;3639;51.308;5.624;2023-04-06T09:09:25;20.57;;;9.27;;
7195;SDS011;3639;51.308;5.624;2023-04-06T09:11:51;22.73;;;10.37;;
7195;SDS011;3639;51.308;5.624;2023-04-06T09:14:29;14.17;;;8.67;;
7195;SDS011;3639;51.308;5.624;2023-04-06T09:16:59;19.53;;;10.07;;
7195;SDS011;3639;51.308;5.624;2023-04-06T09:19:25;19.10;;;9.60;;
7195;SDS011;3639;51.308;5.624;2023-04-06T09:22:00;17.60;;;8.93;;
7195;SDS011;3639;51.308;5.624;2023-04-06T09:24:27;18.83;;;9.07;;
7195;SDS011;3639;51.308;5.624;2023-04-06T09:27:03;19.50;;;9.40;;
7195;SDS011;3639;51.308;5.624;2023-04-06T09:29:29;15.00;;;8.97;;
7195;SDS011;3639;51.308;5.624;2023-04-06T09:32:02;17.57;;;9.20;;
7195;SDS011;3639;51.308;5.624;2023-04-06T09:34:28;16.97;;;8.77;;
7195;SDS011;3639;51.308;5.624;2023-04-06T09:36:54;18.93;;;8.70;;
7195;SDS011;3639;51.308;5.624;2023-04-06T09:39:21;14.00;;;8.63;;
7195;SDS011;3639;51.308;5.624;2023-04-06T09:41:49;15.40;;;8.27;;
7195;SDS011;3639;51.308;5.624;2023-04-06T09:44:15;12.70;;;7.57;;
7195;SDS011;3639;51.308;5.624;2023-04-06T09:46:42;17.93;;;8.37;;
7195;SDS011;3639;51.308;5.624;2023-04-06T09:49:08;15.00;;;7.60;;
7195;SDS011;3639;51.308;5.624;2023-04-06T09:54:06;14.97;;;8.03;;
7195;SDS011;3639;51.308;5.624;2023-04-06T09:59:33;14.77;;;8.53;;
7195;SDS011;3639;51.308;5.624;2023-04-06T10:02:06;12.00;;;7.33;;
7195;SDS011;3639;51.308;5.624;2023-04-06T10:04:40;11.53;;;7.57;;
7195;SDS011;3639;51.308;5.624;2023-04-06T10:07:26;13.53;;;7.93;;
7195;SDS011;3639;51.308;5.624;2023-04-06T10:09:52;12.07;;;7.33;;
7195;SDS011;3639;51.308;5.624;2023-04-06T10:12:19;13.80;;;7.50;;
7195;SDS011;3639;51.308;5.624;2023-04-06T10:14:45;13.23;;;7.53;;
7195;SDS011;3639;51.308;5.624;2023-04-06T10:17:11;11.47;;;7.50;;
7195;SDS011;3639;51.308;5.624;2023-04-06T10:22:08;11.23;;;6.07;;
7195;SDS011;3639;51.308;5.624;2023-04-06T10:24:37;11.73;;;7.63;;
7195;SDS011;3639;51.308;5.624;2023-04-06T10:27:03;13.73;;;6.67;;
7195;SDS011;3639;51.308;5.624;2023-04-06T10:29:41;13.53;;;6.60;;
7195;SDS011;3639;51.308;5.624;2023-04-06T10:32:12;12.90;;;5.70;;
7195;SDS011;3639;51.308;5.624;2023-04-06T10:34:38;10.53;;;6.40;;
7195;SDS011;3639;51.308;5.624;2023-04-06T10:37:10;9.33;;;5.70;;
7195;SDS011;3639;51.308;5.624;2023-04-06T10:40:13;10.23;;;5.73;;
7195;SDS011;3639;51.308;5.624;2023-04-06T10:42:42;8.90;;;5.47;;
7195;SDS011;3639;51.308;5.624;2023-04-06T10:45:18;9.53;;;5.60;;
7195;SDS011;3639;51.308;5.624;2023-04-06T10:47:48;7.97;;;5.07;;
7195;SDS011;3639;51.308;5.624;2023-04-06T10:50:14;8.83;;;5.47;;
7195;SDS011;3639;51.308;5.624;2023-04-06T10:52:44;7.60;;;4.93;;
7195;SDS011;3639;51.308;5.624;2023-04-06T10:55:11;7.47;;;4.80;;
7195;SDS011;3639;51.308;5.624;2023-04-06T10:57:39;5.33;;;3.77;;
7195;SDS011;3639;51.308;5.624;2023-04-06T11:00:07;5.03;;;3.43;;
7195;SDS011;3639;51.308;5.624;2023-04-06T11:02:34;5.90;;;3.47;;
7195;SDS011;3639;51.308;5.624;2023-04-06T11:05:02;4.80;;;3.50;;
7195;SDS011;3639;51.308;5.624;2023-04-06T11:07:28;4.43;;;2.97;;
7195;SDS011;3639;51.308;5.624;2023-04-06T11:09:55;7.33;;;3.67;;
7195;SDS011;3639;51.308;5.624;2023-04-06T11:12:22;4.80;;;3.33;;
7195;SDS011;3639;51.308;5.624;2023-04-06T11:15:01;4.60;;;3.23;;
7195;SDS011;3639;51.308;5.624;2023-04-06T11:17:29;6.67;;;4.27;;
7195;SDS011;3639;51.308;5.624;2023-04-06T11:19:55;6.00;;;4.47;;
7195;SDS011;3639;51.308;5.624;2023-04-06T11:22:21;6.60;;;4.40;;
7195;SDS011;3639;51.308;5.624;2023-04-06T11:24:47;6.30;;;4.23;;
7195;SDS011;3639;51.308;5.624;2023-04-06T11:27:14;7.83;;;4.47;;
7195;SDS011;3639;51.308;5.624;2023-04-06T11:29:42;8.43;;;5.50;;
7195;SDS011;3639;51.308;5.624;2023-04-06T11:32:10;8.20;;;5.63;;
7195;SDS011;3639;51.308;5.624;2023-04-06T11:34:37;8.63;;;5.17;;
7195;SDS011;3639;51.308;5.624;2023-04-06T11:37:08;11.43;;;5.33;;
7195;SDS011;3639;51.308;5.624;2023-04-06T11:39:54;9.60;;;5.70;;
7195;SDS011;3639;51.308;5.624;2023-04-06T11:42:28;11.57;;;5.90;;
7195;SDS011;3639;51.308;5.624;2023-04-06T11:44:57;8.37;;;5.33;;
7195;SDS011;3639;51.308;5.624;2023-04-06T11:47:30;9.83;;;6.43;;
7195;SDS011;3639;51.308;5.624;2023-04-06T11:50:10;8.17;;;5.27;;
7195;SDS011;3639;51.308;5.624;2023-04-06T11:52:37;8.03;;;5.33;;
7195;SDS011;3639;51.308;5.624;2023-04-06T11:55:17;10.40;;;6.20;;
7195;SDS011;3639;51.308;5.624;2023-04-06T11:57:44;10.67;;;6.63;;
7195;SDS011;3639;51.308;5.624;2023-04-06T12:00:10;11.80;;;6.50;;
7195;SDS011;3639;51.308;5.624;2023-04-06T12:02:37;8.20;;;5.63;;
7195;SDS011;3639;51.308;5.624;2023-04-06T12:05:04;10.07;;;6.10;;
7195;SDS011;3639;51.308;5.624;2023-04-06T12:07:30;11.67;;;6.47;;
7195;SDS011;3639;51.308;5.624;2023-04-06T12:09:57;9.40;;;6.60;;
7195;SDS011;3639;51.308;5.624;2023-04-06T12:12:24;11.80;;;6.03;;
7195;SDS011;3639;51.308;5.624;2023-04-06T12:14:50;11.70;;;7.03;;
7195;SDS011;3639;51.308;5.624;2023-04-06T12:17:16;11.27;;;6.47;;
7195;SDS011;3639;51.308;5.624;2023-04-06T12:19:43;10.60;;;6.37;;
7195;SDS011;3639;51.308;5.624;2023-04-06T12:22:09;11.53;;;6.10;;
7195;SDS011;3639;51.308;5.624;2023-04-06T12:24:34;12.17;;;7.00;;
7195;SDS011;3639;51.308;5.624;2023-04-06T12:27:00;10.83;;;6.30;;
7195;SDS011;3639;51.308;5.624;2023-04-06T12:29:26;10.67;;;6.10;;
7195;SDS011;3639;51.308;5.624;2023-04-06T12:31:52;10.63;;;6.77;;
7195;SDS011;3639;51.308;5.624;2023-04-06T12:34:18;10.37;;;6.17;;
7195;SDS011;3639;51.308;5.624;2023-04-06T12:36:43;10.50;;;6.40;;
7195;SDS011;3639;51.308;5.624;2023-04-06T12:39:09;11.13;;;6.67;;
7195;SDS011;3639;51.308;5.624;2023-04-06T12:41:36;9.83;;;5.97;;
7195;SDS011;3639;51.308;5.624;2023-04-06T12:44:02;11.97;;;7.10;;
7195;SDS011;3639;51.308;5.624;2023-04-06T12:46:27;13.00;;;6.47;;
7195;SDS011;3639;51.308;5.624;2023-04-06T12:48:55;9.77;;;6.67;;
7195;SDS011;3639;51.308;5.624;2023-04-06T12:51:22;12.70;;;7.17;;
7195;SDS011;3639;51.308;5.624;2023-04-06T12:53:48;13.30;;;7.03;;
7195;SDS011;3639;51.308;5.624;2023-04-06T12:56:17;11.90;;;6.73;;
7195;SDS011;3639;51.308;5.624;2023-04-06T12:58:43;14.90;;;7.53;;
7195;SDS011;3639;51.308;5.624;2023-04-06T13:01:10;13.17;;;7.37;;
7195;SDS011;3639;51.308;5.624;2023-04-06T13:03:39;11.47;;;7.43;;
7195;SDS011;3639;51.308;5.624;2023-04-06T13:06:05;14.47;;;7.17;;
7195;SDS011;3639;51.308;5.624;2023-04-06T13:08:33;14.77;;;7.70;;
7195;SDS011;3639;51.308;5.624;2023-04-06T13:10:59;14.53;;;7.90;;
7195;SDS011;3639;51.308;5.624;2023-04-06T13:13:26;12.60;;;7.70;;
7195;SDS011;3639;51.308;5.624;2023-04-06T13:15:53;9.07;;;6.43;;
7195;SDS011;3639;51.308;5.624;2023-04-06T13:18:20;12.47;;;7.60;;
7195;SDS011;3639;51.308;5.624;2023-04-06T13:20:47;15.60;;;6.33;;
7195;SDS011;3639;51.308;5.624;2023-04-06T13:23:13;14.33;;;6.83;;
7195;SDS011;3639;51.308;5.624;2023-04-06T13:25:40;9.77;;;6.47;;
7195;SDS011;3639;51.308;5.624;2023-04-06T13:28:07;12.07;;;7.10;;
7195;SDS011;3639;51.308;5.624;2023-04-06T13:30:33;10.57;;;6.63;;
7195;SDS011;3639;51.308;5.624;2023-04-06T13:32:59;10.07;;;6.87;;
7195;SDS011;3639;51.308;5.624;2023-04-06T13:35:25;13.63;;;7.10;;
7195;SDS011;3639;51.308;5.624;2023-04-06T13:37:51;14.80;;;6.83;;
7195;SDS011;3639;51.308;5.624;2023-04-06T13:40:17;13.37;;;7.33;;
7195;SDS011;3639;51.308;5.624;2023-04-06T13:42:43;11.57;;;6.70;;
7195;SDS011;3639;51.308;5.624;2023-04-06T13:45:11;13.97;;;6.70;;
7195;SDS011;3639;51.308;5.624;2023-04-06T13:47:37;11.77;;;7.00;;
7195;SDS011;3639;51.308;5.624;2023-04-06T13:50:03;13.83;;;7.33;;
7195;SDS011;3639;51.308;5.624;2023-04-06T13:52:29;12.77;;;7.60;;
7195;SDS011;3639;51.308;5.624;2023-04-06T13:54:55;16.87;;;7.80;;
7195;SDS011;3639;51.308;5.624;2023-04-06T13:57:20;12.40;;;7.57;;
7195;SDS011;3639;51.308;5.624;2023-04-06T13:59:46;13.57;;;8.43;;
7195;SDS011;3639;51.308;5.624;2023-04-06T14:02:12;12.30;;;7.13;;
7195;SDS011;3639;51.308;5.624;2023-04-06T14:04:38;12.83;;;7.97;;
7195;SDS011;3639;51.308;5.624;2023-04-06T14:07:04;12.93;;;7.37;;
7195;SDS011;3639;51.308;5.624;2023-04-06T14:09:32;13.83;;;7.10;;
7195;SDS011;3639;51.308;5.624;2023-04-06T14:11:58;12.93;;;7.37;;
7195;SDS011;3639;51.308;5.624;2023-04-06T14:14:24;11.73;;;7.10;;
7195;SDS011;3639;51.308;5.624;2023-04-06T14:16:50;16.00;;;7.47;;
7195;SDS011;3639;51.308;5.624;2023-04-06T14:19:16;10.17;;;6.33;;
7195;SDS011;3639;51.308;5.624;2023-04-06T14:21:43;11.73;;;6.53;;
7195;SDS011;3639;51.308;5.624;2023-04-06T14:24:09;12.63;;;6.70;;
7195;SDS011;3639;51.308;5.624;2023-04-06T14:26:36;13.27;;;7.27;;
7195;SDS011;3639;51.308;5.624;2023-04-06T14:29:03;15.73;;;7.73;;
7195;SDS011;3639;51.308;5.624;2023-04-06T14:31:29;10.47;;;6.50;;
7195;SDS011;3639;51.308;5.624;2023-04-06T14:33:55;14.10;;;7.07;;
7195;SDS011;3639;51.308;5.624;2023-04-06T14:36:21;11.57;;;6.70;;
7195;SDS011;3639;51.308;5.624;2023-04-06T14:38:47;13.77;;;6.87;;
7195;SDS011;3639;51.308;5.624;2023-04-06T14:41:16;12.57;;;7.57;;
7195;SDS011;3639;51.308;5.624;2023-04-06T14:43:48;13.63;;;7.10;;
7195;SDS011;3639;51.308;5.624;2023-04-06T14:46:13;9.87;;;6.33;;
7195;SDS011;3639;51.308;5.624;2023-04-06T14:48:40;9.30;;;6.30;;
7195;SDS011;3639;51.308;5.624;2023-04-06T14:51:06;10.90;;;6.83;;
7195;SDS011;3639;51.308;5.624;2023-04-06T14:53:32;9.77;;;6.70;;
7195;SDS011;3639;51.308;5.624;2023-04-06T14:55:58;12.47;;;6.63;;
7195;SDS011;3639;51.308;5.624;2023-04-06T14:58:24;13.17;;;7.57;;
7195;SDS011;3639;51.308;5.624;2023-04-06T15:00:54;11.23;;;7.27;;
7195;SDS011;3639;51.308;5.624;2023-04-06T15:03:24;9.83;;;6.53;;